createdAt,value
2022-10-06T00:01:20.579Z,17.53
2022-10-06T00:03:49.325Z,17.46
2022-10-06T00:06:19.607Z,17.37
2022-10-06T00:08:48.885Z,17.28
2022-10-06T00:11:17.839Z,17.21
2022-10-06T00:13:46.833Z,17.17
2022-10-06T00:16:24.883Z,17.11
2022-10-06T00:18:53.327Z,17.04
2022-10-06T00:21:22.225Z,16.95
2022-10-06T00:23:50.863Z,16.88
2022-10-06T00:26:19.646Z,16.83
2022-10-06T00:28:50.089Z,16.75
2022-10-06T00:31:20.080Z,16.69
2022-10-06T00:33:50.640Z,16.61
2022-10-06T00:36:20.053Z,16.56
2022-10-06T00:38:49.060Z,16.45
2022-10-06T00:41:19.357Z,16.38
2022-10-06T00:43:57.795Z,16.31
2022-10-06T00:46:45.574Z,16.23
2022-10-06T00:49:29.308Z,16.16
2022-10-06T00:52:07.857Z,16.10
2022-10-06T00:54:41.042Z,16.05
2022-10-06T00:57:09.959Z,15.99
2022-10-06T00:59:41.070Z,15.95
2022-10-06T01:02:30.100Z,15.90
2022-10-06T01:05:04.210Z,15.84
2022-10-06T01:07:33.632Z,15.78
2022-10-06T01:10:12.388Z,15.73
2022-10-06T01:12:41.592Z,15.69
2022-10-06T01:15:13.514Z,15.64
2022-10-06T01:17:56.227Z,15.59
2022-10-06T01:20:40.192Z,15.52
2022-10-06T01:23:10.904Z,15.43
2022-10-06T01:25:39.628Z,15.37
2022-10-06T01:28:11.719Z,15.32
2022-10-06T01:30:42.879Z,15.24
2022-10-06T01:33:12.775Z,15.19
2022-10-06T01:35:41.004Z,15.12
2022-10-06T01:38:09.226Z,15.03
2022-10-06T01:40:37.810Z,14.97
2022-10-06T01:43:06.730Z,14.93
2022-10-06T01:45:38.325Z,14.89
2022-10-06T01:48:08.101Z,14.87
2022-10-06T01:50:36.455Z,14.84
2022-10-06T01:53:05.130Z,14.80
2022-10-06T01:55:33.590Z,14.77
2022-10-06T01:58:02.079Z,14.75
2022-10-06T02:00:31.357Z,14.71
2022-10-06T02:02:59.883Z,14.67
2022-10-06T02:05:28.500Z,14.64
2022-10-06T02:07:57.271Z,14.61
2022-10-06T02:10:25.830Z,14.60
2022-10-06T02:12:55.080Z,14.59
2022-10-06T02:15:24.302Z,14.57
2022-10-06T02:17:56.050Z,14.53
2022-10-06T02:20:25.001Z,14.52
2022-10-06T02:22:53.467Z,14.51
2022-10-06T02:25:22.019Z,14.51
2022-10-06T02:27:51.134Z,14.54
2022-10-06T02:30:19.558Z,14.57
2022-10-06T02:32:47.968Z,14.59
2022-10-06T02:35:16.757Z,14.59
2022-10-06T02:37:48.084Z,14.58
2022-10-06T02:40:17.357Z,14.55
2022-10-06T02:42:46.442Z,14.52
2022-10-06T02:45:15.412Z,14.46
2022-10-06T02:47:44.125Z,14.44
2022-10-06T02:50:14.098Z,14.41
2022-10-06T02:52:43.225Z,14.36
2022-10-06T02:55:12.288Z,14.31
2022-10-06T02:57:41.274Z,14.26
2022-10-06T03:00:12.054Z,14.24
2022-10-06T03:02:40.576Z,14.19
2022-10-06T03:05:09.761Z,14.15
2022-10-06T03:07:38.368Z,14.13
2022-10-06T03:10:07.523Z,14.11
2022-10-06T03:12:35.988Z,14.11
2022-10-06T03:15:05.622Z,14.12
2022-10-06T03:17:34.274Z,14.08
2022-10-06T03:20:02.995Z,14.03
2022-10-06T03:22:31.685Z,13.97
2022-10-06T03:25:00.194Z,13.95
2022-10-06T03:27:28.742Z,13.92
2022-10-06T03:29:57.509Z,13.87
2022-10-06T03:32:26.169Z,13.83
2022-10-06T03:34:55.244Z,13.77
2022-10-06T03:37:23.995Z,13.73
2022-10-06T03:39:53.167Z,13.67
2022-10-06T03:42:22.157Z,13.63
2022-10-06T03:44:50.497Z,13.56
2022-10-06T03:47:19.614Z,13.53
2022-10-06T03:49:47.844Z,13.48
2022-10-06T03:52:16.338Z,13.42
2022-10-06T03:54:45.948Z,13.37
2022-10-06T03:57:14.411Z,13.30
2022-10-06T03:59:44.457Z,13.23
2022-10-06T04:02:13.013Z,13.15
2022-10-06T04:04:41.660Z,13.05
2022-10-06T04:07:10.584Z,12.96
2022-10-06T04:09:39.222Z,12.88
2022-10-06T04:12:07.880Z,12.79
2022-10-06T04:14:36.842Z,12.69
2022-10-06T04:17:05.270Z,12.59
2022-10-06T04:19:33.638Z,12.53
2022-10-06T04:22:02.324Z,12.45
2022-10-06T04:24:30.966Z,12.33
2022-10-06T04:27:19.548Z,12.25
2022-10-06T04:29:48.044Z,12.17
2022-10-06T04:32:16.678Z,12.09
2022-10-06T04:34:45.232Z,12.03
2022-10-06T04:37:14.429Z,11.99
2022-10-06T04:39:42.712Z,11.93
2022-10-06T04:42:11.323Z,11.89
2022-10-06T04:44:40.803Z,11.82
2022-10-06T04:47:09.433Z,11.77
2022-10-06T04:49:37.962Z,11.70
2022-10-06T04:52:06.638Z,11.63
2022-10-06T04:54:35.163Z,11.55
2022-10-06T04:57:03.896Z,11.50
2022-10-06T04:59:51.336Z,11.43
2022-10-06T05:02:21.110Z,11.35
2022-10-06T05:04:49.587Z,11.30
2022-10-06T05:07:18.283Z,11.23
2022-10-06T05:09:47.134Z,11.16
2022-10-06T05:12:15.459Z,11.10
2022-10-06T05:14:47.387Z,11.08
2022-10-06T05:17:15.921Z,11.01
2022-10-06T05:19:44.340Z,10.94
2022-10-06T05:22:13.222Z,10.87
2022-10-06T05:24:41.861Z,10.84
2022-10-06T05:27:10.805Z,10.80
2022-10-06T05:29:39.697Z,10.75
2022-10-06T05:32:08.352Z,10.68
2022-10-06T05:34:36.869Z,10.61
2022-10-06T05:37:05.679Z,10.54
2022-10-06T05:39:34.405Z,10.49
2022-10-06T05:42:05.512Z,10.43
2022-10-06T05:44:43.153Z,10.38
2022-10-06T05:47:11.866Z,10.29
2022-10-06T05:49:40.428Z,10.24
2022-10-06T05:52:09.308Z,10.18
2022-10-06T05:54:37.752Z,10.08
2022-10-06T05:57:06.204Z,10.04
2022-10-06T05:59:35.019Z,9.97
2022-10-06T06:02:03.670Z,9.91
2022-10-06T06:04:32.657Z,9.86
2022-10-06T06:07:01.322Z,9.80
2022-10-06T06:09:29.857Z,9.74
2022-10-06T06:12:00.486Z,9.68
2022-10-06T06:14:47.499Z,9.62
2022-10-06T06:17:16.049Z,9.55
2022-10-06T06:19:44.601Z,9.49
2022-10-06T06:22:12.916Z,9.44
2022-10-06T06:24:41.499Z,9.38
2022-10-06T06:27:09.940Z,9.31
2022-10-06T06:29:40.574Z,9.28
2022-10-06T06:32:10.135Z,9.24
2022-10-06T06:34:38.606Z,9.21
2022-10-06T06:37:11.603Z,9.15
2022-10-06T06:39:42.871Z,9.12
2022-10-06T06:42:11.669Z,9.08
2022-10-06T06:44:41.545Z,9.04
2022-10-06T06:47:10.153Z,9.02
2022-10-06T06:49:39.163Z,8.96
2022-10-06T06:52:08.630Z,8.91
2022-10-06T06:54:37.189Z,8.88
2022-10-06T06:57:05.842Z,8.86
2022-10-06T06:59:34.688Z,8.84
2022-10-06T07:02:03.663Z,8.82
2022-10-06T07:04:33.416Z,8.78
2022-10-06T07:07:01.827Z,8.75
2022-10-06T07:09:30.682Z,8.70
2022-10-06T07:11:59.209Z,8.65
2022-10-06T07:14:27.841Z,8.60
2022-10-06T07:17:14.858Z,8.56
2022-10-06T07:19:52.081Z,8.51
2022-10-06T07:22:43.965Z,8.42
2022-10-06T07:25:28.148Z,8.37
2022-10-06T07:27:57.112Z,8.35
2022-10-06T07:30:29.778Z,8.29
2022-10-06T07:32:58.377Z,8.23
2022-10-06T07:35:27.116Z,8.17
2022-10-06T07:37:55.370Z,8.11
2022-10-06T07:40:24.085Z,8.05
2022-10-06T07:42:52.557Z,7.99
2022-10-06T07:45:39.673Z,7.93
2022-10-06T07:48:23.945Z,7.86
2022-10-06T07:50:53.902Z,7.80
2022-10-06T07:53:22.534Z,7.74
2022-10-06T07:55:50.973Z,7.74
2022-10-06T07:58:40.565Z,7.72
2022-10-06T08:01:13.281Z,7.70
2022-10-06T08:03:45.964Z,7.64
2022-10-06T08:06:16.330Z,7.57
2022-10-06T08:08:50.347Z,7.53
2022-10-06T08:11:23.257Z,7.45
2022-10-06T08:13:52.545Z,7.35
2022-10-06T08:16:33.522Z,7.31
2022-10-06T08:19:02.193Z,7.32
2022-10-06T08:21:36.531Z,7.29
2022-10-06T08:24:05.869Z,7.26
2022-10-06T08:26:34.837Z,7.26
2022-10-06T08:29:03.780Z,7.25
2022-10-06T08:31:33.531Z,7.21
2022-10-06T08:34:03.237Z,7.16
2022-10-06T08:36:32.747Z,7.14
2022-10-06T08:39:03.170Z,7.11
2022-10-06T08:41:46.563Z,7.07
2022-10-06T08:44:19.014Z,7.01
2022-10-06T08:47:03.327Z,6.96
2022-10-06T08:49:50.912Z,6.93
2022-10-06T08:53:06.258Z,6.88
2022-10-06T08:55:48.910Z,6.86
2022-10-06T08:58:50.818Z,6.83
2022-10-06T09:01:33.653Z,6.78
2022-10-06T09:04:07.639Z,6.76
2022-10-06T09:07:00.570Z,6.76
2022-10-06T09:10:16.873Z,6.77
2022-10-06T09:12:56.670Z,6.76
2022-10-06T09:15:41.652Z,6.76
2022-10-06T09:19:03.399Z,6.76
2022-10-06T09:21:46.919Z,6.68
2022-10-06T09:24:37.998Z,6.66
2022-10-06T09:27:24.749Z,6.58
2022-10-06T09:29:53.638Z,6.46
2022-10-06T09:32:24.977Z,6.41
2022-10-06T09:35:05.368Z,6.37
2022-10-06T09:38:08.688Z,6.31
2022-10-06T09:40:42.374Z,6.25
2022-10-06T09:43:37.149Z,6.20
2022-10-06T09:46:36.049Z,6.11
2022-10-06T09:49:18.040Z,6.06
2022-10-06T09:52:19.221Z,6.03
2022-10-06T09:55:07.438Z,6.01
2022-10-06T09:57:37.652Z,5.94
2022-10-06T10:00:38.908Z,5.88
2022-10-06T10:03:14.180Z,5.78
2022-10-06T10:05:52.021Z,5.71
2022-10-06T10:08:32.921Z,5.63
2022-10-06T10:11:29.071Z,5.48
2022-10-06T10:14:01.297Z,5.31
2022-10-06T10:16:38.684Z,5.30
2022-10-06T10:19:19.801Z,5.27
2022-10-06T10:21:48.238Z,5.25
2022-10-06T10:24:41.112Z,5.18
2022-10-06T10:27:28.635Z,5.14
2022-10-06T10:30:10.515Z,5.16
2022-10-06T10:33:09.893Z,5.18
2022-10-06T10:35:48.788Z,5.22
2022-10-06T10:38:23.320Z,5.24
2022-10-06T10:41:14.511Z,5.19
2022-10-06T10:44:10.594Z,5.13
2022-10-06T10:46:51.980Z,5.09
2022-10-06T10:49:30.655Z,5.00
2022-10-06T10:52:26.269Z,4.95
2022-10-06T10:55:41.712Z,4.85
2022-10-06T10:58:21.238Z,4.71
2022-10-06T11:00:58.358Z,4.68
2022-10-06T11:03:27.099Z,4.64
2022-10-06T11:06:14.268Z,4.53
2022-10-06T11:09:16.658Z,4.47
2022-10-06T11:12:52.579Z,4.41
2022-10-06T11:16:01.800Z,4.35
2022-10-06T11:18:51.609Z,4.38
2022-10-06T11:21:36.524Z,4.43
2022-10-06T11:24:57.930Z,4.44
2022-10-06T11:27:45.010Z,4.48
2022-10-06T11:30:15.681Z,4.47
2022-10-06T11:33:20.314Z,4.45
2022-10-06T11:35:50.171Z,4.42
2022-10-06T11:39:01.366Z,4.39
2022-10-06T11:41:49.854Z,4.27
2022-10-06T11:44:46.126Z,4.18
2022-10-06T11:47:36.320Z,4.09
2022-10-06T11:50:41.778Z,4.04
2022-10-06T11:53:42.173Z,3.99
2022-10-06T11:56:37.153Z,3.91
2022-10-06T11:59:26.836Z,3.88
2022-10-06T12:01:59.998Z,3.90
2022-10-06T12:04:29.167Z,3.98
2022-10-06T12:07:00.408Z,4.09
2022-10-06T12:09:36.453Z,4.19
2022-10-06T12:12:27.650Z,4.24
2022-10-06T12:18:31.475Z,4.17
2022-10-06T12:21:36.599Z,4.12
2022-10-06T12:24:41.559Z,3.99
2022-10-06T12:27:27.748Z,3.79
2022-10-06T12:30:22.974Z,3.72
2022-10-06T12:33:06.135Z,3.66
2022-10-06T12:35:40.888Z,3.55
2022-10-06T12:38:43.481Z,3.48
2022-10-06T12:41:15.027Z,3.38
2022-10-06T12:43:57.653Z,3.38
2022-10-06T12:46:43.929Z,3.43
2022-10-06T12:49:54.093Z,3.48
2022-10-06T12:52:51.414Z,3.51
2022-10-06T12:55:42.456Z,3.49
2022-10-06T12:58:31.852Z,3.39
2022-10-06T13:01:12.513Z,3.31
2022-10-06T13:03:41.667Z,3.32
2022-10-06T13:06:11.491Z,3.31
2022-10-06T13:08:42.107Z,3.29
2022-10-06T13:11:29.052Z,3.29
2022-10-06T13:14:08.836Z,3.28
2022-10-06T13:16:42.323Z,3.22
2022-10-06T13:19:44.617Z,3.17
2022-10-06T13:22:15.033Z,3.13
2022-10-06T13:24:43.862Z,3.13
2022-10-06T13:27:18.921Z,3.12
2022-10-06T13:29:47.567Z,3.13
2022-10-06T13:32:19.769Z,3.13
2022-10-06T13:34:48.356Z,3.13
2022-10-06T13:37:17.527Z,3.10
2022-10-06T13:39:46.658Z,3.07
2022-10-06T13:42:23.893Z,3.05
2022-10-06T13:45:01.307Z,3.01
2022-10-06T13:47:31.204Z,3.00
2022-10-06T13:50:10.451Z,2.97
2022-10-06T13:52:49.011Z,2.96
2022-10-06T13:55:29.116Z,3.01
2022-10-06T13:58:03.625Z,3.08
2022-10-06T14:00:56.448Z,3.15
2022-10-06T14:03:37.328Z,3.25
2022-10-06T14:06:28.430Z,3.36
2022-10-06T14:10:32.059Z,3.48
2022-10-06T14:13:03.384Z,3.50
2022-10-06T14:15:49.128Z,3.53
2022-10-06T14:18:38.370Z,3.54
2022-10-06T14:21:37.470Z,3.54
2022-10-06T14:24:24.347Z,3.55
2022-10-06T14:26:55.902Z,3.56
2022-10-06T14:29:26.215Z,3.59
2022-10-06T14:31:55.482Z,3.64
2022-10-06T14:34:24.692Z,3.70
2022-10-06T14:36:54.797Z,3.76
2022-10-06T14:39:24.299Z,3.82
2022-10-06T14:41:53.301Z,3.84
2022-10-06T14:44:22.727Z,3.84
2022-10-06T14:46:52.009Z,3.80
2022-10-06T14:49:21.515Z,3.79
2022-10-06T14:51:50.700Z,3.77
2022-10-06T14:54:20.318Z,3.75
2022-10-06T14:56:54.253Z,3.70
2022-10-06T14:59:24.014Z,3.68
2022-10-06T15:01:54.511Z,3.66
2022-10-06T15:04:29.042Z,3.64
2022-10-06T15:07:16.882Z,3.61
2022-10-06T15:09:45.943Z,3.61
2022-10-06T15:12:15.541Z,3.64
2022-10-06T15:14:44.916Z,3.62
2022-10-06T15:17:14.253Z,3.58
2022-10-06T15:19:43.559Z,3.59
2022-10-06T15:22:12.639Z,3.58
2022-10-06T15:24:41.794Z,3.55
2022-10-06T15:27:30.210Z,3.57
2022-10-06T15:29:59.539Z,3.66
2022-10-06T15:32:28.762Z,3.80
2022-10-06T15:34:58.335Z,3.94
2022-10-06T15:37:27.889Z,4.03
2022-10-06T15:39:56.939Z,4.11
2022-10-06T15:42:26.340Z,4.21
2022-10-06T15:44:55.298Z,4.28
2022-10-06T15:47:24.961Z,4.35
2022-10-06T15:49:54.149Z,4.38
2022-10-06T15:52:23.914Z,4.44
2022-10-06T15:54:53.151Z,4.50
2022-10-06T15:57:23.138Z,4.57
2022-10-06T15:59:52.641Z,4.65
2022-10-06T16:02:22.243Z,4.74
2022-10-06T16:05:17.872Z,4.87
2022-10-06T16:07:47.130Z,5.03
2022-10-06T16:10:16.660Z,5.17
2022-10-06T16:12:46.197Z,5.28
2022-10-06T16:15:15.294Z,5.36
2022-10-06T16:17:44.571Z,5.44
2022-10-06T16:20:13.766Z,5.51
2022-10-06T16:22:42.859Z,5.58
2022-10-06T16:25:11.964Z,5.65
2022-10-06T16:27:41.253Z,5.73
2022-10-06T16:30:11.251Z,5.79
2022-10-06T16:32:41.792Z,5.88
2022-10-06T16:35:18.181Z,5.98
2022-10-06T16:37:50.871Z,6.10
2022-10-06T16:40:20.041Z,6.24
2022-10-06T16:42:49.429Z,6.38
2022-10-06T16:45:19.145Z,6.50
2022-10-06T16:47:48.428Z,6.60
2022-10-06T16:50:17.840Z,6.69
2022-10-06T16:52:47.086Z,6.75
2022-10-06T16:55:16.337Z,6.81
2022-10-06T16:57:46.055Z,6.86
2022-10-06T17:00:15.646Z,6.91
2022-10-06T17:02:44.688Z,6.97
2022-10-06T17:05:13.796Z,7.04
2022-10-06T17:07:43.125Z,7.12
2022-10-06T17:10:20.909Z,7.22
2022-10-06T17:12:50.633Z,7.33
2022-10-06T17:15:19.990Z,7.48
2022-10-06T17:17:49.344Z,7.63
2022-10-06T17:20:18.543Z,7.76
2022-10-06T17:22:47.838Z,7.85
2022-10-06T17:25:17.558Z,7.93
2022-10-06T17:27:47.063Z,7.98
2022-10-06T17:30:17.816Z,8.04
2022-10-06T17:32:48.624Z,8.09
2022-10-06T17:35:19.644Z,8.14
2022-10-06T17:37:48.930Z,8.19
2022-10-06T17:40:18.146Z,8.23
2022-10-06T17:42:47.525Z,8.30
2022-10-06T17:45:21.224Z,8.37
2022-10-06T17:47:50.745Z,8.45
2022-10-06T17:50:19.954Z,8.56
2022-10-06T17:52:49.434Z,8.72
2022-10-06T17:55:18.825Z,8.84
2022-10-06T17:57:48.015Z,8.96
2022-10-06T18:00:18.828Z,9.12
2022-10-06T18:02:48.094Z,9.20
2022-10-06T18:05:19.011Z,9.27
2022-10-06T18:07:48.666Z,9.33
2022-10-06T18:10:36.769Z,9.40
2022-10-06T18:13:06.755Z,9.44
2022-10-06T18:15:39.199Z,9.47
2022-10-06T18:18:08.380Z,9.50
2022-10-06T18:20:42.131Z,9.56
2022-10-06T18:23:11.291Z,9.63
2022-10-06T18:25:41.178Z,9.71
2022-10-06T18:28:11.479Z,9.79
2022-10-06T18:30:40.668Z,9.88
2022-10-06T18:36:12.058Z,10.06
2022-10-06T18:38:46.765Z,10.21
2022-10-06T18:41:19.447Z,10.28
2022-10-06T18:43:48.649Z,10.36
2022-10-06T18:46:37.883Z,10.40
2022-10-06T18:49:16.896Z,10.45
2022-10-06T18:51:52.633Z,10.55
2022-10-06T18:54:28.762Z,10.64
2022-10-06T18:56:59.241Z,10.72
2022-10-06T18:59:33.437Z,10.79
2022-10-06T19:02:03.874Z,10.84
2022-10-06T19:04:36.889Z,10.89
2022-10-06T19:07:06.725Z,10.94
2022-10-06T19:09:36.225Z,11.00
2022-10-06T19:12:05.622Z,11.05
2022-10-06T19:14:38.974Z,11.14
2022-10-06T19:17:16.038Z,11.20
2022-10-06T19:19:52.011Z,11.26
2022-10-06T19:22:25.547Z,11.33
2022-10-06T19:24:54.733Z,11.45
2022-10-06T19:27:26.488Z,11.62
2022-10-06T19:29:57.916Z,11.73
2022-10-06T19:32:34.326Z,11.82
2022-10-06T19:35:09.275Z,11.89
2022-10-06T19:37:40.348Z,12.00
2022-10-06T19:40:12.191Z,12.08
2022-10-06T19:42:50.591Z,12.19
2022-10-06T19:45:21.981Z,12.27
2022-10-06T19:47:52.501Z,12.36
2022-10-06T19:50:22.480Z,12.48
2022-10-06T19:52:52.629Z,12.54
2022-10-06T19:55:23.897Z,12.65
2022-10-06T19:57:53.359Z,12.74
2022-10-06T20:00:22.553Z,12.85
2022-10-06T20:02:52.096Z,12.93
2022-10-06T20:05:21.748Z,13.06
2022-10-06T20:07:50.867Z,13.10
2022-10-06T20:10:20.323Z,13.15
2022-10-06T20:12:49.679Z,13.20
2022-10-06T20:15:19.025Z,13.24
2022-10-06T20:17:48.863Z,13.27
2022-10-06T20:20:18.540Z,13.35
2022-10-06T20:22:48.528Z,13.51
2022-10-06T20:25:18.066Z,13.71
2022-10-06T20:27:47.353Z,13.94
2022-10-06T20:30:16.716Z,14.03
2022-10-06T20:32:46.016Z,14.11
2022-10-06T20:35:15.985Z,14.16
2022-10-06T20:37:45.564Z,14.17
2022-10-06T20:40:33.355Z,14.25
2022-10-06T20:43:02.785Z,14.35
2022-10-06T20:45:32.242Z,14.46
2022-10-06T20:48:03.159Z,14.57
2022-10-06T20:50:32.687Z,14.72
2022-10-06T20:53:01.950Z,14.87
2022-10-06T20:55:31.215Z,14.93
2022-10-06T20:58:00.296Z,14.96
2022-10-06T21:00:29.670Z,15.05
2022-10-06T21:02:58.699Z,15.25
2022-10-06T21:05:32.779Z,15.29
2022-10-06T21:08:02.902Z,15.35
2022-10-06T21:10:32.424Z,15.41
2022-10-06T21:13:02.302Z,15.46
2022-10-06T21:15:31.780Z,15.52
2022-10-06T21:18:01.682Z,15.60
2022-10-06T21:20:30.842Z,15.68
2022-10-06T21:23:00.133Z,15.77
2022-10-06T21:25:29.272Z,15.85
2022-10-06T21:27:58.402Z,15.90
2022-10-06T21:30:27.724Z,15.91
2022-10-06T21:32:56.792Z,16.02
2022-10-06T21:35:26.606Z,16.06
2022-10-06T21:37:58.656Z,16.08
2022-10-06T21:40:27.947Z,16.15
2022-10-06T21:42:57.064Z,16.18
2022-10-06T21:45:30.843Z,16.19
2022-10-06T21:48:02.213Z,16.19
2022-10-06T21:50:31.400Z,16.22
2022-10-06T21:53:00.543Z,16.25
2022-10-06T21:55:29.694Z,16.28
2022-10-06T21:57:58.970Z,16.32
2022-10-06T22:00:28.225Z,16.37
2022-10-06T22:02:57.418Z,16.42
2022-10-06T22:05:26.718Z,16.45
2022-10-06T22:07:55.964Z,16.48
2022-10-06T22:10:25.285Z,16.51
2022-10-06T22:12:55.264Z,16.53
2022-10-06T22:15:24.561Z,16.54
2022-10-06T22:17:54.313Z,16.55
2022-10-06T22:20:24.681Z,16.59
2022-10-06T22:22:54.330Z,16.64
2022-10-06T22:25:23.424Z,16.69
2022-10-06T22:27:52.813Z,16.72
2022-10-06T22:30:23.079Z,16.76
2022-10-06T22:32:52.059Z,16.77
2022-10-06T22:35:21.051Z,16.79
2022-10-06T22:37:51.345Z,16.87
2022-10-06T22:40:20.579Z,16.95
2022-10-06T22:42:49.560Z,16.98
2022-10-06T22:45:18.930Z,17.00
2022-10-06T22:47:48.110Z,17.04
2022-10-06T22:50:17.282Z,17.10
2022-10-06T22:52:46.663Z,17.07
2022-10-06T22:55:15.823Z,17.09
2022-10-06T22:57:45.232Z,17.12
2022-10-06T23:00:15.509Z,17.16
2022-10-06T23:02:44.669Z,17.20
2022-10-06T23:05:13.939Z,17.20
2022-10-06T23:07:43.534Z,17.21
2022-10-06T23:10:13.283Z,17.28
2022-10-06T23:12:42.454Z,17.30
2022-10-06T23:15:15.038Z,17.29
2022-10-06T23:17:45.065Z,17.27
2022-10-06T23:20:14.550Z,17.28
2022-10-06T23:22:43.876Z,17.34
2022-10-06T23:25:13.232Z,17.42
2022-10-06T23:27:42.751Z,17.46
2022-10-06T23:30:13.049Z,17.47
2022-10-06T23:32:42.590Z,17.48
2022-10-06T23:35:13.044Z,17.48
2022-10-06T23:37:42.682Z,17.48
2022-10-06T23:40:12.908Z,17.45
2022-10-06T23:42:42.207Z,17.40
2022-10-06T23:45:11.968Z,17.34
2022-10-06T23:47:41.406Z,17.28
2022-10-06T23:50:10.927Z,17.23
2022-10-06T23:52:40.119Z,17.21
2022-10-06T23:55:09.921Z,17.19
2022-10-06T23:57:39.536Z,17.18
